createdAt,value
2019-06-01T00:00:11.377Z,98389.91
2019-06-01T00:02:35.953Z,98390.80
2019-06-01T00:05:06.122Z,98394.68
2019-06-01T00:07:34.886Z,98389.00
2019-06-01T00:10:05.096Z,98392.07
2019-06-01T00:12:33.798Z,98385.55
2019-06-01T00:15:02.818Z,98393.80
2019-06-01T00:17:31.519Z,98388.13
2019-06-01T00:20:00.261Z,98383.33
2019-06-01T00:22:28.969Z,98381.59
2019-06-01T00:24:57.689Z,98378.98
2019-06-01T00:27:26.404Z,98386.35
2019-06-01T00:29:55.105Z,98386.31
2019-06-01T00:32:23.849Z,98389.34
2019-06-01T00:34:52.655Z,98389.66
2019-06-01T00:37:21.362Z,98387.89
2019-06-01T00:39:50.083Z,98388.30
2019-06-01T00:42:19.298Z,98381.80
2019-06-01T00:44:48.513Z,98371.03
2019-06-01T00:47:17.328Z,98376.71
2019-06-01T00:49:46.726Z,98373.73
2019-06-01T00:52:18.460Z,98375.03
2019-06-01T00:54:47.379Z,98370.69
2019-06-01T00:57:16.089Z,98363.74
2019-06-01T00:59:45.894Z,98364.63
2019-06-01T01:02:14.745Z,98359.83
2019-06-01T01:04:44.281Z,98355.48
2019-06-01T01:07:13.130Z,98354.60
2019-06-01T01:09:41.878Z,98346.80
2019-06-01T01:12:10.696Z,98352.45
2019-06-01T01:14:39.407Z,98351.17
2019-06-01T01:17:08.138Z,98348.11
2019-06-01T01:19:36.842Z,98350.30
2019-06-01T01:22:06.251Z,98348.13
2019-06-01T01:24:35.010Z,98342.91
2019-06-01T01:27:03.713Z,98336.80
2019-06-01T01:29:32.425Z,98344.21
2019-06-01T01:32:01.170Z,98339.41
2019-06-01T01:34:29.881Z,98338.98
2019-06-01T01:36:58.584Z,98342.48
2019-06-01T01:39:27.335Z,98339.41
2019-06-01T01:41:56.340Z,98339.41
2019-06-01T01:44:25.014Z,98339.44
2019-06-01T01:46:54.876Z,98338.55
2019-06-01T01:49:23.661Z,98335.52
2019-06-01T01:51:52.889Z,98332.05
2019-06-01T01:54:21.704Z,98330.73
2019-06-01T01:56:50.410Z,98328.12
2019-06-01T01:59:19.118Z,98327.25
2019-06-01T02:01:47.866Z,98325.06
2019-06-01T02:04:16.573Z,98323.33
2019-06-01T02:06:45.276Z,98322.01
2019-06-01T02:09:14.021Z,98320.72
2019-06-01T02:11:42.747Z,98321.55
2019-06-01T02:14:11.454Z,98323.30
2019-06-01T02:16:40.199Z,98328.52
2019-06-01T02:19:08.906Z,98335.47
2019-06-01T02:21:37.612Z,98327.22
2019-06-01T02:24:06.357Z,98329.83
2019-06-01T02:26:35.067Z,98330.27
2019-06-01T02:29:04.343Z,98328.92
2019-06-01T02:31:41.577Z,98325.01
2019-06-01T02:34:06.042Z,98320.22
2019-06-01T02:36:34.171Z,98325.02
2019-06-01T02:39:05.287Z,98325.44
2019-06-01T02:41:34.122Z,98323.25
2019-06-01T02:44:03.912Z,98324.98
2019-06-01T02:46:35.760Z,98322.83
2019-06-01T02:49:04.232Z,98327.16
2019-06-01T02:51:34.170Z,98325.41
2019-06-01T02:54:04.073Z,98328.05
2019-06-01T02:56:32.921Z,98323.25
2019-06-01T02:59:02.335Z,98321.91
2019-06-01T03:01:36.470Z,98327.98
2019-06-01T03:04:08.378Z,98323.25
2019-06-01T03:06:39.355Z,98330.66
2019-06-01T03:09:10.050Z,98331.54
2019-06-01T03:11:40.568Z,98338.45
2019-06-01T03:14:11.179Z,98338.91
2019-06-01T03:16:41.938Z,98335.45
2019-06-01T03:19:12.134Z,98331.59
2019-06-01T03:21:43.606Z,98336.81
2019-06-01T03:24:13.561Z,98333.77
2019-06-01T03:26:44.758Z,98339.76
2019-06-01T03:29:18.856Z,98345.37
2019-06-01T03:31:47.682Z,98337.81
2019-06-01T03:34:16.391Z,98347.37
2019-06-01T03:36:45.235Z,98347.25
2019-06-01T03:39:13.942Z,98344.34
2019-06-01T03:41:42.746Z,98348.42
2019-06-01T03:44:12.820Z,98344.92
2019-06-01T03:46:41.791Z,98349.11
2019-06-01T03:49:11.862Z,98354.58
2019-06-01T03:51:40.809Z,98353.75
2019-06-01T03:54:10.138Z,98351.99
2019-06-01T03:56:38.998Z,98356.27
2019-06-01T03:59:07.745Z,98355.12
2019-06-01T04:01:36.456Z,98351.16
2019-06-01T04:04:05.575Z,98360.05
2019-06-01T04:06:34.296Z,98360.02
2019-06-01T04:09:03.618Z,98360.90
2019-06-01T04:11:32.384Z,98362.26
2019-06-01T04:14:01.546Z,98366.12
2019-06-01T04:16:30.322Z,98367.61
2019-06-01T04:18:59.026Z,98365.62
2019-06-01T04:21:27.773Z,98364.04
2019-06-01T04:23:56.476Z,98367.22
2019-06-01T04:26:25.176Z,98370.20
2019-06-01T04:28:53.928Z,98370.41
2019-06-01T04:31:22.638Z,98368.03
2019-06-01T04:33:51.345Z,98372.88
2019-06-01T04:36:20.089Z,98374.22
2019-06-01T04:38:48.792Z,98374.45
2019-06-01T04:41:17.509Z,98377.59
2019-06-01T04:43:46.258Z,98378.64
2019-06-01T04:46:14.969Z,98378.60
2019-06-01T04:48:43.677Z,98376.92
2019-06-01T04:51:13.471Z,98379.84
2019-06-01T04:53:42.322Z,98371.88
2019-06-01T04:56:11.204Z,98379.91
2019-06-01T04:58:39.943Z,98372.94
2019-06-01T05:01:09.008Z,98375.17
2019-06-01T05:03:37.824Z,98377.67
2019-06-01T05:06:07.173Z,98377.43
2019-06-01T05:08:35.949Z,98380.09
2019-06-01T05:11:06.624Z,98376.22
2019-06-01T05:13:35.212Z,98371.30
2019-06-01T05:16:04.118Z,98380.98
2019-06-01T05:18:32.820Z,98382.83
2019-06-01T05:21:01.564Z,98384.33
2019-06-01T05:23:30.267Z,98376.42
2019-06-01T05:25:59.066Z,98376.17
2019-06-01T05:28:27.820Z,98369.87
2019-06-01T05:30:56.514Z,98369.86
2019-06-01T05:33:36.853Z,98377.17
2019-06-01T05:35:55.700Z,98373.94
2019-06-01T05:38:24.399Z,98374.73
2019-06-01T05:40:53.118Z,98378.57
2019-06-01T05:43:21.870Z,98373.34
2019-06-01T05:45:50.581Z,98379.38
2019-06-01T05:48:25.158Z,98376.08
2019-06-01T05:50:49.744Z,98371.47
2019-06-01T05:53:19.875Z,98379.91
2019-06-01T05:55:48.894Z,98378.67
2019-06-01T05:58:17.600Z,98382.55
2019-06-01T06:00:47.039Z,98378.30
2019-06-01T06:03:20.419Z,98380.08
2019-06-01T06:05:46.217Z,98377.25
2019-06-01T06:08:15.974Z,98375.45
2019-06-01T06:10:45.046Z,98384.44
2019-06-01T06:13:13.749Z,98386.38
2019-06-01T06:15:42.457Z,98386.22
2019-06-01T06:18:11.625Z,98392.91
2019-06-01T06:20:40.479Z,98391.21
2019-06-01T06:23:09.187Z,98391.50
2019-06-01T06:25:39.641Z,98389.39
2019-06-01T06:28:08.328Z,98392.18
2019-06-01T06:30:37.173Z,98390.59
2019-06-01T06:33:06.240Z,98394.14
2019-06-01T06:35:34.942Z,98387.19
2019-06-01T06:38:03.659Z,98389.85
2019-06-01T06:40:32.367Z,98388.88
2019-06-01T06:43:01.117Z,98388.76
2019-06-01T06:45:29.820Z,98384.55
2019-06-01T06:47:58.529Z,98379.94
2019-06-01T06:50:28.769Z,98380.50
2019-06-01T06:52:57.480Z,98387.76
2019-06-01T06:55:26.277Z,98383.70
2019-06-01T06:57:54.985Z,98387.62
2019-06-01T07:00:24.815Z,98391.25
2019-06-01T07:02:53.684Z,98384.87
2019-06-01T07:05:23.436Z,98386.38
2019-06-01T07:07:52.352Z,98383.56
2019-06-01T07:10:22.094Z,98386.75
2019-06-01T07:12:51.457Z,98390.92
2019-06-01T07:15:21.403Z,98389.23
2019-06-01T07:17:50.262Z,98383.64
2019-06-01T07:20:19.537Z,98379.44
2019-06-01T07:22:48.285Z,98377.20
2019-06-01T07:25:16.980Z,98371.66
2019-06-01T07:27:45.765Z,98375.97
2019-06-01T07:30:14.766Z,98377.36
2019-06-01T07:32:43.473Z,98373.36
2019-06-01T07:35:12.415Z,98374.29
2019-06-01T07:37:41.130Z,98367.09
2019-06-01T07:40:13.375Z,98374.08
2019-06-01T07:42:41.879Z,98373.38
2019-06-01T07:45:10.658Z,98377.36
2019-06-01T07:47:39.386Z,98373.77
2019-06-01T07:50:08.211Z,98371.64
2019-06-01T07:52:36.988Z,98371.17
2019-06-01T07:55:06.296Z,98366.25
2019-06-01T07:57:35.031Z,98361.04
2019-06-01T08:00:06.328Z,98370.28
2019-06-01T08:02:35.055Z,98370.80
2019-06-01T08:05:05.277Z,98373.20
2019-06-01T08:07:34.046Z,98376.84
2019-06-01T08:10:02.862Z,98368.53
2019-06-01T08:12:31.730Z,98368.57
2019-06-01T08:15:00.890Z,98380.55
2019-06-01T08:17:30.103Z,98372.03
2019-06-01T08:19:59.122Z,98375.55
2019-06-01T08:22:28.036Z,98370.55
2019-06-01T08:24:56.758Z,98375.27
2019-06-01T08:27:26.518Z,98375.38
2019-06-01T08:29:55.391Z,98376.16
2019-06-01T08:32:24.563Z,98367.09
2019-06-01T08:35:07.299Z,98373.41
2019-06-01T08:37:25.084Z,98372.20
2019-06-01T08:39:53.892Z,98371.81
2019-06-01T08:42:23.451Z,98373.77
2019-06-01T08:44:52.254Z,98371.61
2019-06-01T08:47:21.026Z,98370.34
2019-06-01T08:49:49.731Z,98372.27
2019-06-01T08:52:18.436Z,98370.73
2019-06-01T08:54:47.157Z,98376.67
2019-06-01T08:57:15.874Z,98372.94
2019-06-01T08:59:44.629Z,98366.52
2019-06-01T09:02:13.340Z,98372.48
2019-06-01T09:04:42.042Z,98374.88
2019-06-01T09:07:11.028Z,98370.17
2019-06-01T09:09:39.794Z,98368.22
2019-06-01T09:12:08.540Z,98366.22
2019-06-01T09:14:37.254Z,98365.19
2019-06-01T09:17:05.955Z,98361.06
2019-06-01T09:19:35.692Z,98360.98
2019-06-01T09:22:04.707Z,98368.01
2019-06-01T09:24:33.977Z,98365.95
2019-06-01T09:27:02.854Z,98365.05
2019-06-01T09:29:32.073Z,98360.68
2019-06-01T09:32:01.023Z,98359.61
2019-06-01T09:34:30.469Z,98358.23
2019-06-01T09:36:59.240Z,98355.31
2019-06-01T09:39:29.081Z,98349.92
2019-06-01T09:41:57.837Z,98346.70
2019-06-01T09:44:26.933Z,98347.48
2019-06-01T09:46:55.676Z,98341.96
2019-06-01T09:49:24.382Z,98333.70
2019-06-01T09:51:53.128Z,98331.72
2019-06-01T09:54:21.842Z,98331.87
2019-06-01T09:56:50.557Z,98323.83
2019-06-01T09:59:19.277Z,98320.59
2019-06-01T10:01:48.052Z,98321.27
2019-06-01T10:04:16.819Z,98322.83
2019-06-01T10:06:45.520Z,98324.68
2019-06-01T10:09:14.243Z,98324.05
2019-06-01T10:11:42.952Z,98317.78
2019-06-01T10:14:11.668Z,98320.45
2019-06-01T10:16:40.385Z,98317.67
2019-06-01T10:19:09.122Z,98316.61
2019-06-01T10:21:38.114Z,98307.44
2019-06-01T10:24:06.934Z,98315.23
2019-06-01T10:26:35.808Z,98309.75
2019-06-01T10:29:04.693Z,98309.54
2019-06-01T10:31:34.740Z,98309.83
2019-06-01T10:34:03.764Z,98313.16
2019-06-01T10:36:33.965Z,98311.81
2019-06-01T10:39:02.761Z,98316.66
2019-06-01T10:41:31.471Z,98312.56
2019-06-01T10:44:00.227Z,98310.05
2019-06-01T10:46:28.933Z,98309.74
2019-06-01T10:48:57.633Z,98306.17
2019-06-01T10:51:26.398Z,98311.70
2019-06-01T10:53:55.123Z,98308.14
2019-06-01T10:56:23.822Z,98300.79
2019-06-01T10:59:00.039Z,98311.23
2019-06-01T11:01:23.172Z,98305.42
2019-06-01T11:03:52.192Z,98303.34
2019-06-01T11:06:36.229Z,98304.92
2019-06-01T11:08:51.386Z,98307.50
2019-06-01T11:11:20.128Z,98297.17
2019-06-01T11:13:48.896Z,98295.56
2019-06-01T11:16:17.605Z,98294.04
2019-06-01T11:18:46.333Z,98290.84
2019-06-01T11:21:15.078Z,98298.14
2019-06-01T11:23:46.477Z,98289.45
2019-06-01T11:26:14.237Z,98291.35
2019-06-01T11:28:44.375Z,98286.96
2019-06-01T11:31:13.167Z,98289.39
2019-06-01T11:33:42.153Z,98284.38
2019-06-01T11:36:11.037Z,98283.19
2019-06-01T11:38:40.404Z,98283.05
2019-06-01T11:41:09.322Z,98283.98
2019-06-01T11:43:38.651Z,98279.64
2019-06-01T11:46:07.467Z,98283.34
2019-06-01T11:48:37.170Z,98281.39
2019-06-01T11:51:05.955Z,98288.88
2019-06-01T11:53:35.154Z,98291.61
2019-06-01T11:56:03.918Z,98291.16
2019-06-01T11:58:32.624Z,98284.55
2019-06-01T12:01:07.948Z,98277.91
2019-06-01T12:03:37.676Z,98283.91
2019-06-01T12:06:06.588Z,98276.73
2019-06-01T12:08:35.967Z,98271.19
2019-06-01T12:11:04.911Z,98263.73
2019-06-01T12:13:33.696Z,98265.53
2019-06-01T12:16:02.408Z,98265.53
2019-06-01T12:18:31.124Z,98265.97
2019-06-01T12:20:59.894Z,98266.53
2019-06-01T12:23:28.618Z,98260.05
2019-06-01T12:25:57.371Z,98263.00
2019-06-01T12:28:26.089Z,98256.31
2019-06-01T12:30:54.834Z,98257.46
2019-06-01T12:33:23.552Z,98256.58
2019-06-01T12:35:52.269Z,98255.44
2019-06-01T12:38:21.126Z,98259.58
2019-06-01T12:40:49.846Z,98263.31
2019-06-01T12:43:18.564Z,98255.83
2019-06-01T12:45:47.912Z,98255.55
2019-06-01T12:48:16.679Z,98253.61
2019-06-01T12:50:49.057Z,98251.81
2019-06-01T12:53:16.184Z,98249.14
2019-06-01T12:55:45.255Z,98246.70
2019-06-01T12:58:14.106Z,98252.08
2019-06-01T13:00:43.954Z,98244.46
2019-06-01T13:03:12.850Z,98244.80
2019-06-01T13:05:41.633Z,98243.44
2019-06-01T13:08:10.360Z,98241.77
2019-06-01T13:10:39.122Z,98235.34
2019-06-01T13:13:07.827Z,98236.59
2019-06-01T13:15:36.530Z,98232.95
2019-06-01T13:18:05.273Z,98235.73
2019-06-01T13:20:33.988Z,98231.11
2019-06-01T13:23:02.689Z,98234.84
2019-06-01T13:25:31.396Z,98235.23
2019-06-01T13:28:00.106Z,98235.59
2019-06-01T13:30:28.893Z,98228.00
2019-06-01T13:32:57.599Z,98224.77
2019-06-01T13:35:26.303Z,98227.30
2019-06-01T13:38:10.698Z,98204.66
2019-06-01T13:40:25.464Z,98216.95
2019-06-01T13:42:54.174Z,98210.75
2019-06-01T13:45:22.890Z,98217.05
2019-06-01T13:47:51.857Z,98213.86
2019-06-01T13:50:20.690Z,98221.27
2019-06-01T13:52:50.053Z,98218.50
2019-06-01T13:55:18.828Z,98199.86
2019-06-01T13:57:48.322Z,98209.59
2019-06-01T14:00:29.836Z,98207.28
2019-06-01T14:02:51.334Z,98207.34
2019-06-01T14:05:18.554Z,98205.83
2019-06-01T14:07:47.518Z,98203.28
2019-06-01T14:10:17.718Z,98199.69
2019-06-01T14:12:47.441Z,98193.31
2019-06-01T14:15:16.263Z,98188.95
2019-06-01T14:17:45.968Z,98184.86
2019-06-01T14:20:14.759Z,98188.61
2019-06-01T14:22:43.461Z,98183.75
2019-06-01T14:25:14.925Z,98187.84
2019-06-01T14:27:42.840Z,98191.58
2019-06-01T14:30:11.950Z,98183.45
2019-06-01T14:32:40.669Z,98174.73
2019-06-01T14:35:09.579Z,98183.01
2019-06-01T14:37:38.354Z,98174.58
2019-06-01T14:40:07.578Z,98182.00
2019-06-01T14:42:36.285Z,98177.51
2019-06-01T14:45:07.910Z,98166.73
2019-06-01T14:47:36.635Z,98166.66
2019-06-01T14:50:07.452Z,98162.89
2019-06-01T14:52:36.157Z,98168.66
2019-06-01T14:55:06.959Z,98165.75
2019-06-01T14:57:35.682Z,98165.09
2019-06-01T15:00:08.939Z,98152.08
2019-06-01T15:02:37.697Z,98155.63
2019-06-01T15:05:08.110Z,98162.34
2019-06-01T15:07:37.417Z,98165.76
2019-06-01T15:10:10.327Z,98166.67
2019-06-01T15:12:40.060Z,98158.33
2019-06-01T15:15:10.035Z,98164.25
2019-06-01T15:17:38.745Z,98164.84
2019-06-01T15:20:09.336Z,98160.61
2019-06-01T15:22:38.057Z,98160.61
2019-06-01T15:25:09.998Z,98162.25
2019-06-01T15:27:38.807Z,98162.06
2019-06-01T15:30:09.718Z,98163.52
2019-06-01T15:32:38.426Z,98139.02
2019-06-01T15:35:08.811Z,98139.02
2019-06-01T15:37:37.532Z,98140.42
2019-06-01T15:40:11.228Z,98140.58
2019-06-01T15:42:39.982Z,98137.00
2019-06-01T15:45:09.688Z,98140.42
2019-06-01T15:47:38.479Z,98150.25
2019-06-01T15:50:09.642Z,98143.91
2019-06-01T15:52:38.383Z,98146.77
2019-06-01T15:55:10.943Z,98144.48
2019-06-01T15:57:39.652Z,98156.39
2019-06-01T16:00:09.921Z,98160.27
2019-06-01T16:02:38.624Z,98164.22
2019-06-01T16:05:07.772Z,98159.20
2019-06-01T16:07:36.499Z,98165.46
2019-06-01T16:10:08.342Z,98167.48
2019-06-01T16:12:37.470Z,98164.73
2019-06-01T16:15:10.586Z,98156.50
2019-06-01T16:17:39.320Z,98168.88
2019-06-01T16:20:11.632Z,98165.54
2019-06-01T16:22:40.383Z,98171.01
2019-06-01T16:25:09.409Z,98170.47
2019-06-01T16:27:38.111Z,98173.55
2019-06-01T16:30:08.845Z,98175.00
2019-06-01T16:32:39.563Z,98180.50
2019-06-01T16:35:08.163Z,98176.05
2019-06-01T16:37:36.872Z,98181.95
2019-06-01T16:40:09.915Z,98181.11
2019-06-01T16:42:37.832Z,98175.45
2019-06-01T16:45:10.053Z,98171.37
2019-06-01T16:47:38.769Z,98180.00
2019-06-01T16:50:08.886Z,98177.29
2019-06-01T16:52:37.617Z,98180.37
2019-06-01T16:55:08.757Z,98174.74
2019-06-01T16:57:37.556Z,98176.13
2019-06-01T17:00:08.279Z,98173.67
2019-06-01T17:02:36.983Z,98175.74
2019-06-01T17:05:07.263Z,98178.11
2019-06-01T17:07:36.002Z,98168.12
2019-06-01T17:10:21.783Z,98176.78
2019-06-01T17:12:42.922Z,98181.51
2019-06-01T17:15:10.531Z,98176.16
2019-06-01T17:17:39.237Z,98166.59
2019-06-01T17:20:27.462Z,98170.30
2019-06-01T17:22:57.426Z,98173.52
2019-06-01T17:25:26.378Z,98173.47
2019-06-01T17:27:55.114Z,98183.70
2019-06-01T17:30:23.876Z,98181.93
2019-06-01T17:32:52.588Z,98180.11
2019-06-01T17:35:21.389Z,98183.59
2019-06-01T17:37:50.125Z,98179.12
2019-06-01T17:40:35.643Z,98184.64
2019-06-01T17:42:49.301Z,98186.44
2019-06-01T17:45:18.046Z,98191.80
2019-06-01T17:47:46.776Z,98193.13
2019-06-01T17:50:18.252Z,98191.91
2019-06-01T17:52:46.249Z,98199.95
2019-06-01T17:55:32.738Z,98194.05
2019-06-01T17:58:01.681Z,98196.59
2019-06-01T18:00:30.600Z,98195.97
2019-06-01T18:02:59.416Z,98191.12
2019-06-01T18:05:28.294Z,98196.84
2019-06-01T18:07:57.107Z,98196.78
2019-06-01T18:10:26.714Z,98189.70
2019-06-01T18:12:55.451Z,98188.42
2019-06-01T18:15:24.170Z,98189.10
2019-06-01T18:17:52.939Z,98196.39
2019-06-01T18:20:21.858Z,98194.26
2019-06-01T18:22:50.585Z,98193.17
2019-06-01T18:25:21.629Z,98192.73
2019-06-01T18:27:50.342Z,98187.98
2019-06-01T18:30:19.605Z,98188.82
2019-06-01T18:32:48.441Z,98190.45
2019-06-01T18:35:19.651Z,98194.67
2019-06-01T18:37:47.695Z,98194.63
2019-06-01T18:40:18.173Z,98194.28
2019-06-01T18:42:49.626Z,98198.05
2019-06-01T18:45:19.441Z,98200.55
2019-06-01T18:47:48.452Z,98207.50
2019-06-01T18:50:18.407Z,98214.28
2019-06-01T18:52:47.127Z,98225.28
2019-06-01T18:55:16.117Z,98230.66
2019-06-01T18:57:47.752Z,98226.64
2019-06-01T19:00:16.865Z,98233.48
2019-06-01T19:02:45.630Z,98235.56
2019-06-01T19:05:15.524Z,98234.94
2019-06-01T19:07:44.371Z,98235.60
2019-06-01T19:10:15.684Z,98239.40
2019-06-01T19:12:44.619Z,98247.95
2019-06-01T19:15:27.579Z,98249.27
2019-06-01T19:17:44.038Z,98249.94
2019-06-01T19:20:15.296Z,98248.49
2019-06-01T19:22:44.194Z,98254.33
2019-06-01T19:25:13.261Z,98256.19
2019-06-01T19:27:42.056Z,98257.50
2019-06-01T19:30:11.497Z,98264.61
2019-06-01T19:32:40.726Z,98273.13
2019-06-01T19:35:11.235Z,98273.05
2019-06-01T19:37:42.582Z,98273.04
2019-06-01T19:40:11.718Z,98270.16
2019-06-01T19:42:40.478Z,98259.64
2019-06-01T19:45:22.535Z,98253.02
2019-06-01T19:47:41.285Z,98246.19
2019-06-01T19:50:10.373Z,98247.63
2019-06-01T19:52:39.150Z,98241.37
2019-06-01T19:55:08.948Z,98251.88
2019-06-01T19:57:37.906Z,98257.73
2019-06-01T20:00:07.921Z,98266.95
2019-06-01T20:02:37.041Z,98274.58
2019-06-01T20:05:06.970Z,98268.20
2019-06-01T20:07:35.681Z,98273.83
2019-06-01T20:10:06.850Z,98275.92
2019-06-01T20:12:35.609Z,98271.08
2019-06-01T20:15:06.224Z,98270.88
2019-06-01T20:17:34.969Z,98267.69
2019-06-01T20:20:05.114Z,98256.63
2019-06-01T20:22:33.879Z,98254.77
2019-06-01T20:25:02.699Z,98254.27
2019-06-01T20:27:31.412Z,98262.73
2019-06-01T20:30:00.156Z,98260.30
2019-06-01T20:32:28.881Z,98272.83
2019-06-01T20:34:57.638Z,98276.89
2019-06-01T20:37:26.357Z,98276.17
2019-06-01T20:39:55.076Z,98274.50
2019-06-01T20:42:32.064Z,98270.31
2019-06-01T20:44:54.323Z,98281.00
2019-06-01T20:47:23.039Z,98282.59
2019-06-01T20:49:51.825Z,98292.84
2019-06-01T20:52:20.979Z,98288.53
2019-06-01T20:54:49.847Z,98286.52
2019-06-01T20:57:19.621Z,98293.28
2019-06-01T20:59:48.404Z,98303.20
2019-06-01T21:02:17.795Z,98309.47
2019-06-01T21:04:46.857Z,98326.55
2019-06-01T21:07:15.783Z,98330.13
2019-06-01T21:09:44.531Z,98320.38
2019-06-01T21:12:13.859Z,98328.50
2019-06-01T21:14:42.691Z,98324.11
2019-06-01T21:17:11.408Z,98324.48
2019-06-01T21:19:40.126Z,98326.55
2019-06-01T21:22:08.845Z,98317.77
2019-06-01T21:24:37.560Z,98321.19
2019-06-01T21:27:06.313Z,98315.52
2019-06-01T21:29:35.022Z,98317.23
2019-06-01T21:32:03.740Z,98313.59
2019-06-01T21:34:32.482Z,98313.12
2019-06-01T21:37:01.170Z,98312.72
2019-06-01T21:39:29.929Z,98314.34
2019-06-01T21:41:58.644Z,98309.87
2019-06-01T21:44:27.351Z,98311.55
2019-06-01T21:46:56.074Z,98314.48
2019-06-01T21:49:25.899Z,98322.02
2019-06-01T21:51:54.713Z,98310.95
2019-06-01T21:54:24.605Z,98322.45
2019-06-01T21:56:53.516Z,98310.23
2019-06-01T21:59:22.714Z,98306.06
2019-06-01T22:01:51.625Z,98306.81
2019-06-01T22:04:20.805Z,98312.73
2019-06-01T22:06:50.072Z,98305.77
2019-06-01T22:09:19.137Z,98307.55
2019-06-01T22:11:47.884Z,98317.20
2019-06-01T22:14:17.372Z,98316.05
2019-06-01T22:16:47.021Z,98311.88
2019-06-01T22:19:15.735Z,98319.47
2019-06-01T22:21:44.444Z,98326.33
2019-06-01T22:24:13.160Z,98323.22
2019-06-01T22:26:41.874Z,98323.58
2019-06-01T22:29:10.835Z,98327.50
2019-06-01T22:31:39.543Z,98331.78
2019-06-01T22:34:08.251Z,98331.59
2019-06-01T22:36:37.003Z,98336.31
2019-06-01T22:39:08.124Z,98343.31
2019-06-01T22:41:36.839Z,98348.33
2019-06-01T22:44:05.784Z,98352.30
2019-06-01T22:46:34.495Z,98361.33
2019-06-01T22:49:03.206Z,98368.68
2019-06-01T22:51:33.124Z,98367.45
2019-06-01T22:54:02.165Z,98370.09
2019-06-01T22:56:31.486Z,98370.45
2019-06-01T22:59:00.431Z,98363.95
2019-06-01T23:01:29.140Z,98367.02
2019-06-01T23:03:57.862Z,98356.90
2019-06-01T23:06:27.030Z,98365.52
2019-06-01T23:08:55.806Z,98366.89
2019-06-01T23:11:25.337Z,98359.92
2019-06-01T23:13:54.138Z,98356.03
2019-06-01T23:16:23.612Z,98360.88
2019-06-01T23:18:52.420Z,98361.71
2019-06-01T23:21:21.786Z,98365.64
2019-06-01T23:23:50.672Z,98351.62
2019-06-01T23:26:19.430Z,98349.20
2019-06-01T23:28:48.158Z,98335.98
2019-06-01T23:31:16.907Z,98329.78
2019-06-01T23:33:45.703Z,98334.14
2019-06-01T23:36:14.414Z,98329.30
2019-06-01T23:38:43.135Z,98324.88
2019-06-01T23:41:11.846Z,98319.66
2019-06-01T23:43:40.558Z,98320.59
2019-06-01T23:46:09.275Z,98321.34
2019-06-01T23:48:38.001Z,98320.78
2019-06-01T23:51:06.701Z,98315.91
2019-06-01T23:53:35.445Z,98319.38
2019-06-01T23:56:04.164Z,98311.97
2019-06-01T23:58:32.878Z,98314.11
